Time;durP1;ratioP1;P1;durP2;ratioP2;P2;SDS_P1;SDS_P2;PMS_P1;PMS_P2;Temp;Humidity;BMP_temperature;BMP_pressure;BME280_temperature;BME280_humidity;BME280_pressure;Samples;Min_cycle;Max_cycle;Signal;HPM_P1;HPM_P2
2022/08/29 00:02:17;;;;;;;3.90;3.05;;;23.80;79.60;;;;;;5037368;28;20045;-62
2022/08/29 00:04:42;;;;;;;4.47;3.33;;;23.70;79.60;;;;;;5040902;28;20453;-62
2022/08/29 00:07:08;;;;;;;5.85;3.50;;;23.70;79.60;;;;;;5041338;28;20043;-63
2022/08/29 00:09:33;;;;;;;4.80;3.35;;;23.70;79.50;;;;;;5025737;28;20039;-64
2022/08/29 00:11:59;;;;;;;5.70;3.30;;;23.70;79.60;;;;;;5042135;28;20021;-62
2022/08/29 00:14:24;;;;;;;4.10;3.25;;;23.70;79.60;;;;;;5042518;28;20026;-62
2022/08/29 00:16:50;;;;;;;4.28;3.30;;;23.70;79.60;;;;;;5043128;28;20094;-62
2022/08/29 00:19:15;;;;;;;4.18;3.55;;;23.70;79.70;;;;;;5039789;28;20661;-62
2022/08/29 00:21:41;;;;;;;3.92;3.47;;;23.60;79.80;;;;;;5023454;28;20535;-63
2022/08/29 00:24:07;;;;;;;3.97;3.38;;;23.60;79.80;;;;;;5044141;28;20156;-62
2022/08/29 00:26:34;;;;;;;3.42;3.13;;;23.60;80.00;;;;;;5041298;28;20213;-62
2022/08/29 00:28:59;;;;;;;6.40;3.22;;;23.60;80.10;;;;;;5040191;28;20377;-62
2022/08/29 00:31:25;;;;;;;3.80;3.40;;;23.50;80.10;;;;;;5024020;28;20993;-62
2022/08/29 00:33:50;;;;;;;4.72;3.17;;;23.50;80.30;;;;;;5044634;28;20472;-62
2022/08/29 00:36:16;;;;;;;3.63;3.17;;;23.50;80.40;;;;;;5037008;28;20041;-62
2022/08/29 00:38:42;;;;;;;4.00;3.22;;;23.40;80.40;;;;;;5027324;28;20029;-62
2022/08/29 00:41:07;;;;;;;4.13;3.50;;;23.50;80.40;;;;;;5025483;28;20497;-62
2022/08/29 00:43:34;;;;;;;4.95;3.30;;;23.40;80.40;;;;;;5043839;28;20033;-62
2022/08/29 00:46:45;;;;;;;4.05;3.42;;;23.40;80.40;;;;;;5034902;28;20028;-62
2022/08/29 00:49:24;;;;;;;4.32;3.17;;;23.40;80.60;;;;;;5013205;28;20034;-62
2022/08/29 00:51:50;;;;;;;4.35;3.47;;;23.40;80.80;;;;;;5043353;28;20032;-62
2022/08/29 00:54:15;;;;;;;4.40;3.30;;;23.30;80.70;;;;;;5038805;28;20033;-62
2022/08/29 00:56:41;;;;;;;6.55;3.75;;;23.30;80.70;;;;;;5040430;28;20029;-62
2022/08/29 00:59:22;;;;;;;7.10;3.45;;;23.20;80.80;;;;;;5025015;28;20091;-63
2022/08/29 01:01:48;;;;;;;4.32;2.90;;;23.30;80.90;;;;;;5039859;28;20040;-62
2022/08/29 01:04:13;;;;;;;4.95;3.33;;;23.20;80.90;;;;;;5042714;28;20083;-62
2022/08/29 01:06:40;;;;;;;5.35;3.42;;;23.20;81.00;;;;;;5043272;28;20660;-61
2022/08/29 01:09:05;;;;;;;5.05;3.63;;;23.20;81.10;;;;;;5038727;28;20108;-62
2022/08/29 01:14:16;;;;;;;5.82;3.40;;;23.20;81.30;;;;;;5025265;28;20079;-62
2022/08/29 01:16:42;;;;;;;4.22;3.53;;;23.20;81.20;;;;;;5038051;28;20471;-62
2022/08/29 01:19:27;;;;;;;5.43;3.72;;;23.20;81.30;;;;;;5023467;28;20064;-62
2022/08/29 01:21:58;;;;;;;6.32;3.33;;;23.10;81.80;;;;;;5041442;28;20499;-62
2022/08/29 01:24:38;;;;;;;3.83;3.50;;;23.10;81.20;;;;;;5021886;28;20038;-62
2022/08/29 01:27:04;;;;;;;5.10;3.55;;;23.10;81.30;;;;;;5024213;28;20400;-62
2022/08/29 01:29:29;;;;;;;4.53;3.60;;;23.10;81.40;;;;;;5038068;28;20029;-62
2022/08/29 01:31:56;;;;;;;3.90;3.50;;;23.00;81.50;;;;;;5038333;28;20032;-63
2022/08/29 01:34:21;;;;;;;5.35;3.78;;;23.00;81.50;;;;;;5040740;28;20044;-62
2022/08/29 01:36:56;;;;;;;6.85;3.65;;;23.00;81.60;;;;;;5042044;28;20025;-62
2022/08/29 01:39:25;;;;;;;5.45;3.70;;;23.00;81.70;;;;;;5021609;28;20017;-63
2022/08/29 01:41:51;;;;;;;4.47;3.80;;;23.00;81.70;;;;;;5035092;28;20048;-62
2022/08/29 01:44:18;;;;;;;5.75;3.80;;;23.00;81.80;;;;;;5038670;28;20044;-62
2022/08/29 01:46:44;;;;;;;4.07;3.67;;;22.90;81.80;;;;;;5023499;28;20068;-62
2022/08/29 01:49:10;;;;;;;7.00;3.83;;;22.90;82.00;;;;;;5039730;28;20057;-62
2022/08/29 01:51:36;;;;;;;4.15;3.85;;;22.90;82.10;;;;;;5040410;28;20029;-62
2022/08/29 01:54:04;;;;;;;6.15;3.80;;;22.90;82.20;;;;;;5039035;28;20127;-62
2022/08/29 01:56:31;;;;;;;4.93;3.78;;;22.90;82.20;;;;;;5023032;28;20033;-61
2022/08/29 01:58:58;;;;;;;3.75;3.42;;;22.90;82.10;;;;;;5023598;28;20026;-62
2022/08/29 02:01:26;;;;;;;5.85;3.72;;;22.80;82.20;;;;;;5033553;28;20082;-61
2022/08/29 02:03:51;;;;;;;3.75;3.42;;;22.80;82.30;;;;;;5039940;28;20029;-62
2022/08/29 02:06:17;;;;;;;4.35;3.95;;;22.80;82.30;;;;;;5019578;28;20059;-62
2022/08/29 02:08:43;;;;;;;5.47;4.18;;;22.70;82.40;;;;;;5038911;28;20082;-62
2022/08/29 02:11:10;;;;;;;7.30;3.90;;;22.70;82.50;;;;;;5040720;28;20107;-61
2022/08/29 02:13:40;;;;;;;4.35;3.70;;;22.70;82.50;;;;;;5041856;28;20021;-62
2022/08/29 02:16:06;;;;;;;5.40;3.55;;;22.70;82.40;;;;;;5034339;28;20120;-62
2022/08/29 02:18:32;;;;;;;4.45;3.85;;;22.70;82.50;;;;;;5037403;28;20025;-62
2022/08/29 02:20:57;;;;;;;4.28;3.85;;;22.70;82.50;;;;;;5039015;28;20076;-62
2022/08/29 02:23:23;;;;;;;3.80;3.50;;;22.60;82.60;;;;;;5040254;28;20060;-61
2022/08/29 02:25:49;;;;;;;3.92;3.42;;;22.60;82.70;;;;;;5040955;28;20218;-62
2022/08/29 02:28:15;;;;;;;4.35;3.95;;;22.60;82.80;;;;;;5040951;28;20024;-62
2022/08/29 02:30:41;;;;;;;5.80;4.25;;;22.50;82.70;;;;;;5036995;28;20462;-62
2022/08/29 02:33:07;;;;;;;6.90;3.72;;;22.50;82.90;;;;;;5032335;28;20407;-62
2022/08/29 02:35:32;;;;;;;5.43;3.85;;;22.50;83.00;;;;;;5040291;28;20305;-62
2022/08/29 02:37:58;;;;;;;4.55;3.83;;;22.50;83.00;;;;;;5041995;28;20037;-61
2022/08/29 02:40:25;;;;;;;6.03;3.85;;;22.50;83.10;;;;;;5040031;28;20071;-62
2022/08/29 02:42:52;;;;;;;6.35;3.45;;;22.50;83.10;;;;;;5039958;28;20595;-61
2022/08/29 02:45:18;;;;;;;4.05;3.65;;;22.50;83.10;;;;;;5039959;28;20511;-62
2022/08/29 02:47:44;;;;;;;6.45;3.72;;;22.50;83.10;;;;;;5033407;28;20052;-62
2022/08/29 02:50:11;;;;;;;5.07;3.85;;;22.40;83.20;;;;;;5041167;28;20037;-62
2022/08/29 02:52:38;;;;;;;4.35;3.95;;;22.40;83.20;;;;;;5033163;28;20013;-62
2022/08/29 02:55:05;;;;;;;4.18;3.78;;;22.40;83.10;;;;;;5039585;28;20451;-62
2022/08/29 02:57:30;;;;;;;4.63;3.80;;;22.40;83.10;;;;;;5037675;28;20207;-61
2022/08/29 02:59:56;;;;;;;4.15;3.60;;;22.40;83.20;;;;;;5039982;28;20119;-61
2022/08/29 03:02:21;;;;;;;4.35;3.95;;;22.40;83.20;;;;;;5038337;28;20481;-61
2022/08/29 03:04:47;;;;;;;4.82;4.38;;;22.40;83.30;;;;;;5038105;28;20049;-61
2022/08/29 03:07:12;;;;;;;4.68;4.22;;;22.30;83.30;;;;;;5040577;28;20684;-61
2022/08/29 03:09:38;;;;;;;5.32;4.45;;;22.30;83.40;;;;;;5039143;28;20036;-61
2022/08/29 03:12:04;;;;;;;4.82;3.95;;;22.30;83.50;;;;;;5040136;28;20029;-61
2022/08/29 03:14:29;;;;;;;7.38;4.30;;;22.20;83.60;;;;;;5042405;28;20461;-61
2022/08/29 03:16:55;;;;;;;4.65;4.18;;;22.20;83.70;;;;;;5044514;28;20039;-61
2022/08/29 03:19:21;;;;;;;5.15;4.25;;;22.20;83.80;;;;;;5021344;28;20283;-61
2022/08/29 03:21:47;;;;;;;5.05;3.70;;;22.20;83.70;;;;;;5042159;28;20488;-61
2022/08/29 03:24:12;;;;;;;4.60;4.20;;;22.20;83.90;;;;;;5027181;28;20040;-61
2022/08/29 03:26:38;;;;;;;4.72;4.28;;;22.10;83.90;;;;;;5043924;28;20026;-61
2022/08/29 03:29:04;;;;;;;4.95;4.20;;;22.20;83.90;;;;;;5046608;28;20027;-61
2022/08/29 03:31:29;;;;;;;4.53;4.05;;;22.10;83.80;;;;;;5041076;28;20462;-61
2022/08/29 03:33:55;;;;;;;5.90;3.95;;;22.10;84.00;;;;;;5024186;28;20025;-61
2022/08/29 03:36:21;;;;;;;4.53;4.13;;;22.10;84.00;;;;;;5019574;28;20242;-61
2022/08/29 03:38:47;;;;;;;4.88;4.22;;;22.10;84.20;;;;;;5026435;28;20104;-61
2022/08/29 03:41:19;;;;;;;6.50;4.40;;;22.00;84.20;;;;;;5044149;28;20043;-61
2022/08/29 03:43:45;;;;;;;4.50;4.10;;;22.00;84.20;;;;;;5044393;28;20401;-61
2022/08/29 03:46:10;;;;;;;5.95;4.78;;;22.10;84.30;;;;;;5041782;28;20033;-61
2022/08/29 03:48:36;;;;;;;5.40;3.85;;;22.00;84.30;;;;;;5044981;28;20019;-61
2022/08/29 03:51:02;;;;;;;4.53;3.97;;;22.00;84.30;;;;;;5043166;28;20067;-61
2022/08/29 03:53:27;;;;;;;4.90;4.40;;;22.00;84.40;;;;;;5038782;28;20025;-63
2022/08/29 03:55:53;;;;;;;5.75;4.20;;;21.90;84.30;;;;;;5044199;28;20028;-63
2022/08/29 03:58:18;;;;;;;6.40;4.47;;;22.00;84.40;;;;;;5041210;28;20021;-63
2022/08/29 04:00:45;;;;;;;4.93;4.50;;;21.90;84.30;;;;;;5043780;28;20072;-64
2022/08/29 04:03:11;;;;;;;5.05;4.07;;;22.00;84.30;;;;;;5042559;28;20076;-63
2022/08/29 04:05:36;;;;;;;5.07;4.50;;;22.00;84.30;;;;;;5042237;28;20137;-63
2022/08/29 04:08:02;;;;;;;4.85;4.20;;;21.90;84.20;;;;;;5041805;28;20028;-63
2022/08/29 04:10:36;;;;;;;4.47;4.07;;;21.90;84.30;;;;;;5039536;28;20060;-63
2022/08/29 04:13:02;;;;;;;5.28;4.45;;;21.90;84.40;;;;;;5042179;28;20029;-63
2022/08/29 04:15:28;;;;;;;4.72;4.15;;;21.80;84.40;;;;;;5024274;28;20079;-63
2022/08/29 04:17:55;;;;;;;5.10;4.00;;;21.80;84.50;;;;;;5040844;28;20031;-63
2022/08/29 04:20:21;;;;;;;7.53;3.97;;;21.80;84.60;;;;;;5025828;28;20025;-63
2022/08/29 04:22:48;;;;;;;5.22;4.47;;;21.80;84.70;;;;;;5039195;28;20082;-63
2022/08/29 04:25:13;;;;;;;4.75;4.03;;;21.80;84.60;;;;;;5024068;28;20094;-63
2022/08/29 04:27:40;;;;;;;4.43;4.03;;;21.70;84.70;;;;;;5039203;28;20536;-63
2022/08/29 04:30:09;;;;;;;6.65;4.25;;;21.70;84.80;;;;;;5040185;28;20033;-63
2022/08/29 04:32:34;;;;;;;4.20;3.85;;;21.70;84.90;;;;;;5024274;28;20025;-63
2022/08/29 04:34:59;;;;;;;5.07;4.20;;;21.70;85.00;;;;;;5043290;28;20033;-63
2022/08/29 04:37:25;;;;;;;4.38;3.95;;;21.70;85.10;;;;;;5041586;28;20040;-63
2022/08/29 04:39:51;;;;;;;4.80;4.20;;;21.70;85.10;;;;;;5023863;28;20033;-63
2022/08/29 04:42:18;;;;;;;5.13;4.63;;;21.60;85.20;;;;;;5037806;28;20039;-63
2022/08/29 04:44:44;;;;;;;4.90;4.50;;;21.60;85.30;;;;;;5025137;28;20409;-63
2022/08/29 04:47:09;;;;;;;7.63;4.47;;;21.90;85.30;;;;;;5043580;28;20029;-62
2022/08/29 04:49:35;;;;;;;5.10;4.40;;;21.60;85.20;;;;;;5044876;28;20679;-61
2022/08/29 04:52:01;;;;;;;5.20;4.68;;;21.70;85.30;;;;;;5026008;28;20025;-61
2022/08/29 04:54:26;;;;;;;5.20;4.70;;;21.60;85.30;;;;;;5041411;28;20029;-63
2022/08/29 04:56:52;;;;;;;5.65;4.22;;;21.60;85.30;;;;;;5041779;28;20547;-63
2022/08/29 04:59:18;;;;;;;4.75;4.25;;;21.60;85.40;;;;;;5037757;28;20036;-63
2022/08/29 05:01:44;;;;;;;6.22;4.70;;;21.60;85.40;;;;;;5042129;28;20033;-63
2022/08/29 05:04:10;;;;;;;4.80;4.35;;;21.50;85.40;;;;;;5022127;28;20025;-63
2022/08/29 05:06:35;;;;;;;5.53;4.47;;;21.50;85.50;;;;;;5043192;28;20013;-63
2022/08/29 05:09:01;;;;;;;4.95;4.32;;;21.50;85.50;;;;;;5024435;28;20108;-63
2022/08/29 05:11:28;;;;;;;5.00;4.50;;;21.50;85.50;;;;;;5042084;28;20040;-63
2022/08/29 05:13:53;;;;;;;5.38;4.40;;;21.50;85.50;;;;;;5041610;28;20377;-63
2022/08/29 05:16:19;;;;;;;4.75;4.35;;;21.40;85.60;;;;;;5035193;28;21680;-60
2022/08/29 05:18:45;;;;;;;5.13;4.35;;;21.50;85.60;;;;;;5038819;28;20056;-63
2022/08/29 05:21:12;;;;;;;7.07;5.20;;;21.40;85.60;;;;;;5037729;28;20061;-63
2022/08/29 05:23:37;;;;;;;5.18;4.30;;;21.40;85.60;;;;;;5042091;28;20028;-63
2022/08/29 05:26:03;;;;;;;5.93;4.93;;;21.40;85.70;;;;;;5042961;28;20033;-65
2022/08/29 05:28:30;;;;;;;5.38;4.60;;;21.40;85.70;;;;;;5026022;28;20044;-63
2022/08/29 05:30:55;;;;;;;5.97;4.93;;;21.40;85.60;;;;;;5039894;28;20023;-61
2022/08/29 05:33:21;;;;;;;5.40;4.90;;;21.40;85.60;;;;;;5039530;28;20025;-61
2022/08/29 05:35:46;;;;;;;5.60;4.72;;;21.40;85.50;;;;;;5034849;28;20151;-63
2022/08/29 05:38:12;;;;;;;5.38;4.63;;;21.40;85.60;;;;;;5024528;28;20549;-63
2022/08/29 05:40:37;;;;;;;7.07;5.07;;;21.40;85.70;;;;;;5041441;28;20040;-62
2022/08/29 05:43:04;;;;;;;6.55;4.93;;;21.40;85.60;;;;;;5036695;28;20552;-63
2022/08/29 05:45:30;;;;;;;5.47;4.93;;;21.40;85.70;;;;;;5024776;28;20051;-63
2022/08/29 05:47:55;;;;;;;5.15;4.65;;;21.40;85.80;;;;;;5028122;28;20049;-63
2022/08/29 05:50:21;;;;;;;5.50;4.78;;;21.40;85.90;;;;;;5012221;28;20045;-60
2022/08/29 05:52:47;;;;;;;5.82;5.25;;;21.40;85.90;;;;;;5031952;28;20032;-63
2022/08/29 05:55:12;;;;;;;7.32;5.63;;;21.40;85.90;;;;;;5032092;28;20036;-63
2022/08/29 05:57:38;;;;;;;9.85;5.60;;;21.40;86.10;;;;;;5033037;28;20051;-64
2022/08/29 06:00:04;;;;;;;5.68;5.15;;;21.40;86.20;;;;;;5031501;28;20036;-63
2022/08/29 06:02:30;;;;;;;8.45;5.20;;;21.40;86.40;;;;;;5011203;28;20041;-63
2022/08/29 06:04:56;;;;;;;23.33;5.95;;;21.40;86.50;;;;;;5029179;28;20853;-64
2022/08/29 06:07:21;;;;;;;10.45;6.20;;;21.40;86.60;;;;;;5030334;28;20448;-64
2022/08/29 06:09:47;;;;;;;10.77;6.45;;;21.30;86.60;;;;;;5033767;28;20033;-63
2022/08/29 06:12:13;;;;;;;9.70;5.90;;;21.40;87.00;;;;;;5023958;28;20025;-63
2022/08/29 06:14:39;;;;;;;8.77;6.25;;;21.30;87.10;;;;;;5016388;28;20025;-63
2022/08/29 06:17:05;;;;;;;10.73;6.80;;;21.30;87.30;;;;;;5030446;28;20668;-64
2022/08/29 06:19:33;;;;;;;17.70;6.82;;;21.30;87.50;;;;;;5014723;28;20037;-63
2022/08/29 06:22:00;;;;;;;25.67;7.80;;;21.30;87.80;;;;;;5013925;28;20029;-64
2022/08/29 06:24:25;;;;;;;22.77;7.43;;;21.30;88.00;;;;;;5031115;28;20032;-63
2022/08/29 06:26:51;;;;;;;17.77;7.32;;;21.30;88.20;;;;;;5032763;28;20053;-63
2022/08/29 06:29:16;;;;;;;20.55;7.60;;;21.30;88.40;;;;;;5031762;28;20036;-63
2022/08/29 06:31:42;;;;;;;16.02;7.15;;;21.30;88.60;;;;;;5032730;28;20112;-63
2022/08/29 06:34:08;;;;;;;22.90;7.90;;;21.20;88.70;;;;;;5030255;28;20087;-63
2022/08/29 06:36:34;;;;;;;27.92;7.85;;;21.20;88.50;;;;;;5016551;28;20025;-63
2022/08/29 06:39:01;;;;;;;51.70;9.65;;;21.20;88.90;;;;;;5018756;28;20028;-63
2022/08/29 06:41:26;;;;;;;27.38;8.82;;;21.20;89.00;;;;;;5031746;28;20624;-64
2022/08/29 06:43:53;;;;;;;24.45;8.60;;;21.30;89.10;;;;;;4998756;28;20057;-63
2022/08/29 06:46:24;;;;;;;35.40;8.95;;;21.20;89.20;;;;;;5031412;28;20676;-63
2022/08/29 06:48:49;;;;;;;19.35;8.15;;;21.20;89.40;;;;;;5012480;28;20052;-63
2022/08/29 06:51:15;;;;;;;31.08;8.43;;;21.20;89.40;;;;;;5014246;28;20468;-63
2022/08/29 06:53:40;;;;;;;27.20;8.43;;;21.30;89.60;;;;;;5030644;28;20025;-63
2022/08/29 06:56:06;;;;;;;25.42;8.45;;;21.20;89.80;;;;;;5026604;28;20040;-63
2022/08/29 06:58:32;;;;;;;26.98;8.10;;;21.20;89.90;;;;;;5028627;28;20041;-63
2022/08/29 07:00:58;;;;;;;50.75;11.80;;;21.20;90.00;;;;;;5028646;28;20136;-62
2022/08/29 07:03:23;;;;;;;32.17;8.85;;;21.20;90.00;;;;;;5013341;28;20625;-63
2022/08/29 07:05:52;;;;;;;53.95;11.00;;;21.20;89.90;;;;;;5030249;28;20025;-62
2022/08/29 07:08:18;;;;;;;65.10;11.45;;;21.20;89.90;;;;;;5030580;28;20052;-62
2022/08/29 07:10:44;;;;;;;37.38;9.75;;;21.20;90.00;;;;;;5020468;28;20594;-63
2022/08/29 07:13:09;;;;;;;56.65;10.15;;;21.30;90.00;;;;;;5022002;28;20033;-62
2022/08/29 07:15:35;;;;;;;98.57;13.88;;;21.30;90.00;;;;;;5017630;28;20049;-62
2022/08/29 07:18:01;;;;;;;60.28;12.68;;;21.30;90.00;;;;;;5025147;28;20048;-62
2022/08/29 07:20:26;;;;;;;47.03;9.48;;;21.30;90.00;;;;;;5026129;28;20057;-63
2022/08/29 07:22:52;;;;;;;48.85;10.38;;;21.30;90.10;;;;;;5028769;28;20037;-63
2022/08/29 07:25:18;;;;;;;36.47;9.55;;;21.30;90.10;;;;;;5024490;28;20033;-63
2022/08/29 07:27:45;;;;;;;33.28;9.38;;;21.30;90.20;;;;;;5023121;28;20038;-63
2022/08/29 07:30:11;;;;;;;23.33;8.50;;;21.30;90.30;;;;;;5019066;28;20033;-63
2022/08/29 07:32:36;;;;;;;83.82;14.23;;;21.30;90.50;;;;;;5034738;28;20029;-63
2022/08/29 07:35:02;;;;;;;57.97;11.02;;;21.30;90.40;;;;;;5013646;28;20067;-63
2022/08/29 07:37:27;;;;;;;43.13;10.25;;;21.30;90.40;;;;;;5025461;28;20930;-63
2022/08/29 07:39:53;;;;;;;36.67;10.43;;;21.30;90.30;;;;;;5027629;28;20053;-63
2022/08/29 07:42:18;;;;;;;39.10;9.73;;;21.30;90.30;;;;;;5017463;28;20060;-65
2022/08/29 07:44:44;;;;;;;39.38;9.07;;;21.30;90.30;;;;;;5004393;28;20118;-62
2022/08/29 07:47:09;;;;;;;31.38;9.45;;;21.30;90.30;;;;;;5008428;28;20052;-63
2022/08/29 07:49:36;;;;;;;48.53;10.25;;;21.40;90.30;;;;;;5023578;28;20116;-62
2022/08/29 07:52:02;;;;;;;39.30;10.73;;;21.40;90.30;;;;;;5029729;28;20033;-63
2022/08/29 07:54:27;;;;;;;33.20;9.57;;;21.40;90.30;;;;;;5021069;28;22819;-62
2022/08/29 07:56:53;;;;;;;45.60;9.18;;;21.40;90.20;;;;;;5031496;28;20037;-62
2022/08/29 07:59:19;;;;;;;30.05;8.65;;;21.40;90.20;;;;;;5027311;28;20029;-63
2022/08/29 08:01:45;;;;;;;33.10;9.27;;;21.50;90.10;;;;;;5025761;28;22235;-62
2022/08/29 08:04:10;;;;;;;24.77;9.27;;;21.50;90.10;;;;;;5026948;28;20037;-61
2022/08/29 08:06:36;;;;;;;38.95;10.00;;;21.50;90.10;;;;;;5032450;28;20040;-61
2022/08/29 08:09:03;;;;;;;54.67;10.45;;;21.50;90.10;;;;;;5007855;28;20484;-61
2022/08/29 08:11:29;;;;;;;40.40;8.93;;;21.50;90.10;;;;;;5007008;28;20040;-61
2022/08/29 08:13:54;;;;;;;49.15;11.23;;;21.60;90.10;;;;;;5004284;28;20029;-61
2022/08/29 08:16:21;;;;;;;36.42;8.65;;;21.60;90.20;;;;;;5026497;28;20040;-62
2022/08/29 08:18:46;;;;;;;36.97;9.68;;;21.60;90.10;;;;;;5022187;28;20040;-61
2022/08/29 08:21:12;;;;;;;26.58;9.48;;;21.60;90.20;;;;;;5017851;28;20025;-62
2022/08/29 08:23:38;;;;;;;31.48;9.05;;;21.70;90.60;;;;;;5023059;28;20028;-62
2022/08/29 08:26:04;;;;;;;27.90;9.45;;;21.60;90.80;;;;;;5024289;28;20055;-61
2022/08/29 08:28:30;;;;;;;43.65;9.73;;;21.60;91.00;;;;;;5003640;28;20049;-63
2022/08/29 08:30:56;;;;;;;25.48;8.93;;;21.60;91.10;;;;;;5022655;28;20395;-62
2022/08/29 08:33:22;;;;;;;19.92;8.93;;;21.60;91.20;;;;;;5028568;28;20060;-62
2022/08/29 08:35:47;;;;;;;47.80;10.77;;;21.60;91.20;;;;;;5018851;28;20045;-63
2022/08/29 08:38:15;;;;;;;29.73;8.70;;;21.60;91.00;;;;;;5023952;28;21208;-62
2022/08/29 08:40:44;;;;;;;27.48;8.00;;;21.60;91.20;;;;;;5005673;28;20821;-62
2022/08/29 08:43:10;;;;;;;37.47;9.90;;;21.60;91.10;;;;;;5024246;28;20667;-62
2022/08/29 08:45:36;;;;;;;23.60;8.93;;;21.60;91.40;;;;;;5009415;28;20112;-63
2022/08/29 08:48:17;;;;;;;35.00;8.68;;;21.70;91.50;;;;;;5021284;28;20075;-62
2022/08/29 08:51:03;;;;;;;34.90;9.93;;;21.60;91.50;;;;;;5011252;28;22947;-62
2022/08/29 08:53:42;;;;;;;45.35;9.32;;;21.70;91.60;;;;;;5024686;28;20055;-61
2022/08/29 08:56:30;;;;;;;33.65;9.85;;;21.70;91.50;;;;;;5024042;28;20114;-61
2022/08/29 08:59:12;;;;;;;33.13;9.10;;;21.70;91.40;;;;;;5029347;28;20116;-63
2022/08/29 09:01:44;;;;;;;42.22;9.48;;;21.70;91.50;;;;;;5011108;28;20424;-63
2022/08/29 09:04:28;;;;;;;45.38;9.75;;;21.80;91.50;;;;;;5028291;28;20075;-62
2022/08/29 09:07:21;;;;;;;30.23;8.35;;;21.80;91.50;;;;;;5041418;28;20743;-62
2022/08/29 09:10:08;;;;;;;26.13;9.57;;;21.90;91.40;;;;;;5021947;28;20991;-63
2022/08/29 09:12:44;;;;;;;49.05;9.85;;;21.90;91.80;;;;;;5022923;28;20029;-62
2022/08/29 09:15:14;;;;;;;;;;;21.90;91.40;;;;;;5007496;28;20025;-62
2022/08/29 09:17:47;;;;;;;52.47;10.98;;;21.90;91.40;;;;;;5028573;28;20407;-62
2022/08/29 09:20:18;;;;;;;49.10;10.65;;;22.00;91.40;;;;;;5028007;28;20021;-63
2022/08/29 09:22:48;;;;;;;78.40;11.18;;;22.00;91.40;;;;;;5026889;28;20111;-62
2022/08/29 09:25:14;;;;;;;31.10;10.23;;;22.00;91.60;;;;;;5024211;28;20037;-62
2022/08/29 09:27:39;;;;;;;38.10;10.88;;;22.00;91.60;;;;;;5021793;28;20030;-61
2022/08/29 09:30:35;;;;;;;76.70;12.30;;;22.00;91.60;;;;;;5005431;28;20523;-64
2022/08/29 09:33:06;;;;;;;49.03;10.23;;;22.10;91.80;;;;;;5014749;28;20055;-62
2022/08/29 09:35:35;;;;;;;53.70;10.27;;;22.10;91.40;;;;;;5028107;28;20116;-62
2022/08/29 09:38:26;;;;;;;40.50;9.98;;;22.10;91.30;;;;;;5025269;28;20053;-62
2022/08/29 09:41:00;;;;;;;53.53;10.20;;;22.20;91.40;;;;;;5026380;28;20025;-61
2022/08/29 09:43:32;;;;;;;30.88;8.75;;;22.20;91.30;;;;;;5011915;28;20068;-61
2022/08/29 09:46:13;;;;;;;38.53;9.25;;;22.20;91.30;;;;;;5028200;28;20506;-61
2022/08/29 09:48:45;;;;;;;34.17;9.52;;;22.30;91.60;;;;;;5020583;28;20040;-62
2022/08/29 09:51:23;;;;;;;46.83;10.45;;;22.30;91.70;;;;;;5013439;28;20129;-61
2022/08/29 09:53:49;;;;;;;40.42;9.73;;;22.40;91.70;;;;;;5031284;28;20108;-63
2022/08/29 09:56:17;;;;;;;25.25;9.35;;;22.40;91.60;;;;;;5029360;28;20652;-62
2022/08/29 09:58:43;;;;;;;37.63;9.07;;;22.40;91.40;;;;;;5013433;28;20045;-62
2022/08/29 10:01:11;;;;;;;34.22;9.20;;;22.40;91.30;;;;;;5028932;28;20036;-62
2022/08/29 10:03:40;;;;;;;34.72;9.23;;;22.50;91.30;;;;;;4998986;28;20029;-63
2022/08/29 10:06:19;;;;;;;39.13;9.80;;;22.50;91.10;;;;;;5023634;28;20071;-63
2022/08/29 10:09:06;;;;;;;35.15;9.43;;;22.60;91.20;;;;;;5014096;28;20037;-64
2022/08/29 10:11:40;;;;;;;40.15;9.45;;;22.60;91.10;;;;;;5012981;28;20021;-63
2022/08/29 10:14:14;;;;;;;39.00;9.75;;;22.70;91.00;;;;;;5029097;28;20025;-64
2022/08/29 10:16:47;;;;;;;37.03;9.02;;;22.70;90.90;;;;;;5024368;28;20068;-64
2022/08/29 10:19:31;;;;;;;47.47;10.45;;;22.80;90.70;;;;;;5028037;28;20124;-62
2022/08/29 10:22:22;;;;;;;27.77;8.95;;;22.80;90.70;;;;;;5017315;28;20138;-62
2022/08/29 10:24:53;;;;;;;40.40;8.55;;;22.80;90.60;;;;;;5005111;28;20794;-67
2022/08/29 10:27:51;;;;;;;34.53;7.43;;;22.80;90.60;;;;;;5020252;28;20033;-63
2022/08/29 10:30:22;;;;;;;33.63;8.75;;;22.90;90.60;;;;;;5021123;28;20600;-63
2022/08/29 10:33:28;;;;;;;41.25;9.20;;;22.90;90.50;;;;;;5025211;28;20120;-66
2022/08/29 10:36:05;;;;;;;43.03;9.57;;;23.00;90.40;;;;;;5023826;28;20040;-64
2022/08/29 10:38:55;;;;;;;31.38;8.65;;;23.00;90.40;;;;;;5026451;28;20033;-64
2022/08/29 10:41:31;;;;;;;45.08;9.40;;;23.00;90.40;;;;;;5026095;28;20132;-63
2022/08/29 10:44:06;;;;;;;35.58;8.95;;;23.10;90.30;;;;;;5010059;28;21041;-62
2022/08/29 10:46:41;;;;;;;30.55;9.02;;;23.10;90.20;;;;;;5013051;28;20051;-63
2022/08/29 10:49:28;;;;;;;44.33;9.52;;;23.20;90.20;;;;;;5025020;28;20041;-63
2022/08/29 10:52:10;;;;;;;58.38;11.18;;;23.20;90.10;;;;;;5020680;28;20425;-62
2022/08/29 10:54:48;;;;;;;40.67;9.30;;;23.30;90.00;;;;;;5019220;28;20488;-62
2022/08/29 10:57:46;;;;;;;44.90;9.93;;;23.40;90.10;;;;;;5023718;28;20566;-63
2022/08/29 11:00:20;;;;;;;39.05;9.90;;;23.40;90.00;;;;;;5006702;28;20104;-63
2022/08/29 11:03:23;;;;;;;27.33;8.75;;;23.50;89.50;;;;;;5007566;28;20149;-65
2022/08/29 11:05:56;;;;;;;35.47;7.82;;;23.50;89.20;;;;;;5025751;28;20111;-61
2022/08/29 11:08:44;;;;;;;29.77;8.02;;;23.60;88.80;;;;;;5013120;28;20037;-62
2022/08/29 11:11:11;;;;;;;26.30;8.13;;;23.70;88.50;;;;;;5028088;28;20477;-61
2022/08/29 11:13:42;;;;;;;40.17;8.15;;;23.80;88.20;;;;;;5025135;28;20037;-64
2022/08/29 11:16:21;;;;;;;38.72;8.65;;;23.80;87.90;;;;;;5018191;28;20030;-62
2022/08/29 11:19:23;;;;;;;29.73;8.18;;;23.80;87.80;;;;;;5011405;28;20025;-62
2022/08/29 11:22:00;;;;;;;36.13;8.43;;;23.90;87.40;;;;;;5024235;28;20017;-63
2022/08/29 11:24:27;;;;;;;28.65;6.82;;;24.00;86.80;;;;;;5024386;28;20063;-62
2022/08/29 11:27:07;;;;;;;45.38;8.57;;;24.10;86.00;;;;;;5025604;28;20029;-63
2022/08/29 11:29:51;;;;;;;33.90;8.50;;;24.20;85.40;;;;;;5025651;28;20029;-63
2022/08/29 11:32:17;;;;;;;43.90;8.30;;;24.20;85.60;;;;;;5013271;28;20033;-62
2022/08/29 11:35:02;;;;;;;32.17;7.30;;;24.30;84.30;;;;;;5030755;28;20048;-62
2022/08/29 11:37:37;;;;;;;16.30;5.97;;;24.30;83.40;;;;;;5030686;28;20147;-62
2022/08/29 11:40:40;;;;;;;19.63;5.60;;;24.40;83.00;;;;;;5037322;28;20029;-63
2022/08/29 11:43:06;;;;;;;15.60;5.45;;;24.50;82.60;;;;;;5035919;28;20118;-63
2022/08/29 11:45:35;;;;;;;16.20;4.97;;;24.60;82.20;;;;;;5017304;28;20153;-63
2022/08/29 11:48:15;;;;;;;31.42;5.70;;;24.60;81.90;;;;;;5011572;28;20029;-62
2022/08/29 11:50:41;;;;;;;15.38;5.65;;;24.70;81.70;;;;;;5027466;28;20396;-63
2022/08/29 11:53:34;;;;;;;18.92;5.10;;;24.80;81.30;;;;;;5010253;28;20501;-61
2022/08/29 11:56:12;;;;;;;26.55;5.90;;;24.80;80.90;;;;;;5027098;28;20029;-63
2022/08/29 11:58:42;;;;;;;13.35;5.10;;;24.90;80.50;;;;;;5027932;28;20067;-63
2022/08/29 12:01:36;;;;;;;17.65;5.22;;;25.00;79.60;;;;;;5035517;28;20020;-62
2022/08/29 12:04:05;;;;;;;30.70;6.93;;;25.00;79.30;;;;;;5031549;28;20483;-62
2022/08/29 12:06:58;;;;;;;12.68;4.65;;;25.10;79.30;;;;;;5029627;28;20037;-63
2022/08/29 12:09:25;;;;;;;15.05;4.43;;;25.00;78.70;;;;;;5029023;28;20500;-62
2022/08/29 12:11:59;;;;;;;13.55;5.13;;;25.10;78.60;;;;;;5025828;28;20036;-63
2022/08/29 12:14:45;;;;;;;16.08;4.88;;;25.20;78.60;;;;;;5029588;28;21013;-62
2022/08/29 12:17:30;;;;;;;32.47;5.53;;;25.30;78.50;;;;;;5011432;28;20103;-63
2022/08/29 12:19:55;;;;;;;16.00;4.63;;;25.30;77.60;;;;;;5024202;28;20072;-63
2022/08/29 12:22:43;;;;;;;12.63;4.85;;;25.40;77.40;;;;;;5031383;28;20036;-63
2022/08/29 12:25:29;;;;;;;22.47;5.30;;;25.40;77.00;;;;;;5028810;28;20173;-64
2022/08/29 12:28:24;;;;;;;13.88;5.05;;;25.50;76.50;;;;;;5030680;28;20024;-63
2022/08/29 12:31:13;;;;;;;23.20;5.00;;;25.50;75.60;;;;;;5013457;28;20565;-63
2022/08/29 12:33:52;;;;;;;49.47;7.93;;;25.60;75.80;;;;;;5025505;28;20087;-63
2022/08/29 12:36:27;;;;;;;26.65;5.50;;;25.70;75.90;;;;;;5015227;28;20103;-63
2022/08/29 12:39:23;;;;;;;21.20;5.40;;;25.80;75.40;;;;;;5032254;28;20029;-63
2022/08/29 12:42:18;;;;;;;31.52;5.53;;;25.80;75.50;;;;;;5029467;28;20067;-63
2022/08/29 12:44:46;;;;;;;40.47;7.38;;;25.80;75.00;;;;;;5031085;28;20084;-63
2022/08/29 12:47:24;;;;;;;34.30;6.03;;;25.90;75.20;;;;;;5006978;28;20033;-63
2022/08/29 12:49:52;;;;;;;27.95;5.53;;;25.90;75.00;;;;;;5031163;28;20029;-64
2022/08/29 12:52:28;;;;;;;20.55;5.28;;;26.00;74.70;;;;;;5011411;28;20682;-63
2022/08/29 12:54:55;;;;;;;33.40;6.25;;;26.00;74.30;;;;;;5031305;28;20029;-63
2022/08/29 12:57:34;;;;;;;40.20;6.85;;;26.00;73.80;;;;;;5027126;28;20212;-64
2022/08/29 13:00:01;;;;;;;31.35;5.85;;;26.10;74.30;;;;;;5010673;28;20056;-64